sensor_id;sensor_type;location;lat;lon;timestamp;temperature;humidity
44900;DHT22;30628;51.188;6.770;2022-12-07T00:01:09;5.60;99.90
44900;DHT22;30628;51.188;6.770;2022-12-07T00:03:36;5.70;99.90
44900;DHT22;30628;51.188;6.770;2022-12-07T00:06:05;5.70;99.90
44900;DHT22;30628;51.188;6.770;2022-12-07T00:08:32;5.80;99.90
44900;DHT22;30628;51.188;6.770;2022-12-07T00:11:22;5.70;99.90
44900;DHT22;30628;51.188;6.770;2022-12-07T00:13:54;5.80;99.90
44900;DHT22;30628;51.188;6.770;2022-12-07T00:16:22;5.80;99.90
44900;DHT22;30628;51.188;6.770;2022-12-07T00:18:49;5.70;99.90
44900;DHT22;30628;51.188;6.770;2022-12-07T00:21:18;5.70;99.90
44900;DHT22;30628;51.188;6.770;2022-12-07T00:23:46;5.70;99.90
44900;DHT22;30628;51.188;6.770;2022-12-07T00:26:17;5.70;99.90
44900;DHT22;30628;51.188;6.770;2022-12-07T00:29:06;5.70;99.90
44900;DHT22;30628;51.188;6.770;2022-12-07T00:31:35;5.70;99.90
44900;DHT22;30628;51.188;6.770;2022-12-07T00:34:06;5.70;99.90
44900;DHT22;30628;51.188;6.770;2022-12-07T00:36:33;5.70;99.90
44900;DHT22;30628;51.188;6.770;2022-12-07T00:38:59;5.70;99.90
44900;DHT22;30628;51.188;6.770;2022-12-07T00:41:27;5.70;99.90
44900;DHT22;30628;51.188;6.770;2022-12-07T00:43:54;5.70;99.90
44900;DHT22;30628;51.188;6.770;2022-12-07T00:46:20;5.70;99.90
44900;DHT22;30628;51.188;6.770;2022-12-07T00:48:47;5.70;99.90
44900;DHT22;30628;51.188;6.770;2022-12-07T00:51:15;5.70;99.90
44900;DHT22;30628;51.188;6.770;2022-12-07T00:53:41;5.60;99.90
44900;DHT22;30628;51.188;6.770;2022-12-07T00:56:13;5.70;99.90
44900;DHT22;30628;51.188;6.770;2022-12-07T00:58:40;5.70;99.90
44900;DHT22;30628;51.188;6.770;2022-12-07T01:01:08;5.70;99.90
44900;DHT22;30628;51.188;6.770;2022-12-07T01:03:34;5.70;99.90
44900;DHT22;30628;51.188;6.770;2022-12-07T01:06:01;5.70;99.90
44900;DHT22;30628;51.188;6.770;2022-12-07T01:08:28;5.70;99.90
44900;DHT22;30628;51.188;6.770;2022-12-07T01:11:03;5.70;99.90
44900;DHT22;30628;51.188;6.770;2022-12-07T01:13:31;5.60;99.90
44900;DHT22;30628;51.188;6.770;2022-12-07T01:16:02;5.70;99.90
44900;DHT22;30628;51.188;6.770;2022-12-07T01:18:30;5.70;99.90
44900;DHT22;30628;51.188;6.770;2022-12-07T01:21:04;5.60;99.90
44900;DHT22;30628;51.188;6.770;2022-12-07T01:23:32;5.70;99.90
44900;DHT22;30628;51.188;6.770;2022-12-07T01:26:00;5.70;99.90
44900;DHT22;30628;51.188;6.770;2022-12-07T01:28:27;5.70;99.90
44900;DHT22;30628;51.188;6.770;2022-12-07T01:30:57;5.70;99.90
44900;DHT22;30628;51.188;6.770;2022-12-07T01:33:23;5.70;99.90
44900;DHT22;30628;51.188;6.770;2022-12-07T01:35:49;5.80;99.90
44900;DHT22;30628;51.188;6.770;2022-12-07T01:38:15;5.80;99.90
44900;DHT22;30628;51.188;6.770;2022-12-07T01:40:42;5.80;99.90
44900;DHT22;30628;51.188;6.770;2022-12-07T01:43:17;5.70;99.90
44900;DHT22;30628;51.188;6.770;2022-12-07T01:46:04;5.70;99.90
44900;DHT22;30628;51.188;6.770;2022-12-07T01:48:40;5.70;99.90
44900;DHT22;30628;51.188;6.770;2022-12-07T01:51:12;5.70;99.90
44900;DHT22;30628;51.188;6.770;2022-12-07T01:53:42;5.70;99.90
44900;DHT22;30628;51.188;6.770;2022-12-07T01:56:11;5.70;99.90
44900;DHT22;30628;51.188;6.770;2022-12-07T01:58:40;5.70;99.90
44900;DHT22;30628;51.188;6.770;2022-12-07T02:01:06;5.70;99.90
44900;DHT22;30628;51.188;6.770;2022-12-07T02:03:37;5.70;99.90
44900;DHT22;30628;51.188;6.770;2022-12-07T02:06:05;5.70;99.90
44900;DHT22;30628;51.188;6.770;2022-12-07T02:08:32;5.70;99.90
44900;DHT22;30628;51.188;6.770;2022-12-07T02:11:00;5.70;99.90
44900;DHT22;30628;51.188;6.770;2022-12-07T02:13:29;5.70;99.90
44900;DHT22;30628;51.188;6.770;2022-12-07T02:16:24;5.70;99.90
44900;DHT22;30628;51.188;6.770;2022-12-07T02:19:16;5.80;99.90
44900;DHT22;30628;51.188;6.770;2022-12-07T02:29:58;5.70;99.90
44900;DHT22;30628;51.188;6.770;2022-12-07T02:38:26;5.70;99.90
44900;DHT22;30628;51.188;6.770;2022-12-07T02:43:34;5.70;99.90
44900;DHT22;30628;51.188;6.770;2022-12-07T02:46:08;5.70;99.90
44900;DHT22;30628;51.188;6.770;2022-12-07T02:48:37;5.70;99.90
44900;DHT22;30628;51.188;6.770;2022-12-07T02:51:04;5.70;99.90
44900;DHT22;30628;51.188;6.770;2022-12-07T02:56:03;5.70;99.90
44900;DHT22;30628;51.188;6.770;2022-12-07T03:07:16;5.80;99.90
44900;DHT22;30628;51.188;6.770;2022-12-07T03:09:57;5.80;99.90
44900;DHT22;30628;51.188;6.770;2022-12-07T03:12:32;5.80;99.90
44900;DHT22;30628;51.188;6.770;2022-12-07T03:15:07;5.80;99.90
44900;DHT22;30628;51.188;6.770;2022-12-07T03:17:35;5.80;99.90
44900;DHT22;30628;51.188;6.770;2022-12-07T03:20:05;5.80;99.90
44900;DHT22;30628;51.188;6.770;2022-12-07T03:22:35;5.80;99.90
44900;DHT22;30628;51.188;6.770;2022-12-07T03:25:09;5.80;99.90
44900;DHT22;30628;51.188;6.770;2022-12-07T03:27:58;5.80;99.90
44900;DHT22;30628;51.188;6.770;2022-12-07T03:30:30;5.70;99.90
44900;DHT22;30628;51.188;6.770;2022-12-07T03:33:06;5.70;99.90
44900;DHT22;30628;51.188;6.770;2022-12-07T03:35:40;5.70;99.90
44900;DHT22;30628;51.188;6.770;2022-12-07T03:38:31;5.70;99.90
44900;DHT22;30628;51.188;6.770;2022-12-07T03:41:05;5.70;99.90
44900;DHT22;30628;51.188;6.770;2022-12-07T03:43:33;5.60;99.90
44900;DHT22;30628;51.188;6.770;2022-12-07T03:48:46;5.70;99.90
44900;DHT22;30628;51.188;6.770;2022-12-07T03:51:22;5.60;99.90
44900;DHT22;30628;51.188;6.770;2022-12-07T03:56:50;5.60;99.90
44900;DHT22;30628;51.188;6.770;2022-12-07T03:59:18;5.60;99.90
44900;DHT22;30628;51.188;6.770;2022-12-07T04:01:52;5.60;99.90
44900;DHT22;30628;51.188;6.770;2022-12-07T04:04:18;5.60;99.90
44900;DHT22;30628;51.188;6.770;2022-12-07T04:06:44;5.60;99.90
44900;DHT22;30628;51.188;6.770;2022-12-07T04:09:11;5.60;99.90
44900;DHT22;30628;51.188;6.770;2022-12-07T04:11:37;5.60;99.90
44900;DHT22;30628;51.188;6.770;2022-12-07T04:14:03;5.60;99.90
44900;DHT22;30628;51.188;6.770;2022-12-07T04:16:46;5.60;99.90
44900;DHT22;30628;51.188;6.770;2022-12-07T04:19:12;5.60;99.90
44900;DHT22;30628;51.188;6.770;2022-12-07T04:21:39;5.60;99.90
44900;DHT22;30628;51.188;6.770;2022-12-07T04:24:05;5.60;99.90
44900;DHT22;30628;51.188;6.770;2022-12-07T04:26:31;5.60;99.90
44900;DHT22;30628;51.188;6.770;2022-12-07T04:28:57;5.60;99.90
44900;DHT22;30628;51.188;6.770;2022-12-07T04:31:24;5.60;99.90
44900;DHT22;30628;51.188;6.770;2022-12-07T04:33:50;5.60;99.90
44900;DHT22;30628;51.188;6.770;2022-12-07T04:36:16;5.60;99.90
44900;DHT22;30628;51.188;6.770;2022-12-07T04:38:42;5.70;99.90
44900;DHT22;30628;51.188;6.770;2022-12-07T04:41:09;5.70;99.90
44900;DHT22;30628;51.188;6.770;2022-12-07T04:43:36;5.70;99.90
44900;DHT22;30628;51.188;6.770;2022-12-07T04:46:02;5.70;99.90
44900;DHT22;30628;51.188;6.770;2022-12-07T04:48:28;5.70;99.90
44900;DHT22;30628;51.188;6.770;2022-12-07T04:50:55;5.70;99.90
44900;DHT22;30628;51.188;6.770;2022-12-07T04:53:21;5.70;99.90
44900;DHT22;30628;51.188;6.770;2022-12-07T04:55:47;5.70;99.90
44900;DHT22;30628;51.188;6.770;2022-12-07T04:58:13;5.70;99.90
44900;DHT22;30628;51.188;6.770;2022-12-07T05:00:41;5.70;99.90
44900;DHT22;30628;51.188;6.770;2022-12-07T05:03:07;5.70;99.90
44900;DHT22;30628;51.188;6.770;2022-12-07T05:05:33;5.60;99.90
44900;DHT22;30628;51.188;6.770;2022-12-07T05:07:59;5.70;99.90
44900;DHT22;30628;51.188;6.770;2022-12-07T05:10:25;5.70;99.90
44900;DHT22;30628;51.188;6.770;2022-12-07T05:12:51;5.60;99.90
44900;DHT22;30628;51.188;6.770;2022-12-07T05:15:17;5.50;99.90
44900;DHT22;30628;51.188;6.770;2022-12-07T05:17:44;5.50;99.90
44900;DHT22;30628;51.188;6.770;2022-12-07T05:20:10;5.50;99.90
44900;DHT22;30628;51.188;6.770;2022-12-07T05:22:36;5.40;99.90
44900;DHT22;30628;51.188;6.770;2022-12-07T05:25:03;5.50;99.90
44900;DHT22;30628;51.188;6.770;2022-12-07T05:27:29;5.50;99.90
44900;DHT22;30628;51.188;6.770;2022-12-07T05:29:55;5.60;99.90
44900;DHT22;30628;51.188;6.770;2022-12-07T05:32:21;5.50;99.90
44900;DHT22;30628;51.188;6.770;2022-12-07T05:34:47;5.50;99.90
44900;DHT22;30628;51.188;6.770;2022-12-07T05:37:13;5.50;99.90
44900;DHT22;30628;51.188;6.770;2022-12-07T05:39:39;5.60;99.90
44900;DHT22;30628;51.188;6.770;2022-12-07T05:42:10;5.50;99.90
44900;DHT22;30628;51.188;6.770;2022-12-07T05:44:47;5.60;99.90
44900;DHT22;30628;51.188;6.770;2022-12-07T05:47:14;5.60;99.90
44900;DHT22;30628;51.188;6.770;2022-12-07T05:49:41;5.70;99.90
44900;DHT22;30628;51.188;6.770;2022-12-07T05:52:07;5.70;99.90
44900;DHT22;30628;51.188;6.770;2022-12-07T05:54:33;5.60;99.90
44900;DHT22;30628;51.188;6.770;2022-12-07T05:56:59;5.60;99.90
44900;DHT22;30628;51.188;6.770;2022-12-07T05:59:26;5.70;99.90
44900;DHT22;30628;51.188;6.770;2022-12-07T06:01:59;5.60;99.90
44900;DHT22;30628;51.188;6.770;2022-12-07T06:04:27;5.70;99.90
44900;DHT22;30628;51.188;6.770;2022-12-07T06:06:53;5.70;99.90
44900;DHT22;30628;51.188;6.770;2022-12-07T06:09:21;5.70;99.90
44900;DHT22;30628;51.188;6.770;2022-12-07T06:11:47;5.70;99.90
44900;DHT22;30628;51.188;6.770;2022-12-07T06:14:32;5.80;99.90
44900;DHT22;30628;51.188;6.770;2022-12-07T06:16:59;5.80;99.90
44900;DHT22;30628;51.188;6.770;2022-12-07T06:19:25;5.80;99.90
44900;DHT22;30628;51.188;6.770;2022-12-07T06:21:52;5.80;99.90
44900;DHT22;30628;51.188;6.770;2022-12-07T06:24:19;5.70;99.90
44900;DHT22;30628;51.188;6.770;2022-12-07T06:26:45;5.60;99.90
44900;DHT22;30628;51.188;6.770;2022-12-07T06:29:12;5.60;99.90
44900;DHT22;30628;51.188;6.770;2022-12-07T06:31:39;5.60;99.90
44900;DHT22;30628;51.188;6.770;2022-12-07T06:34:08;5.60;99.90
44900;DHT22;30628;51.188;6.770;2022-12-07T06:36:35;5.70;99.90
44900;DHT22;30628;51.188;6.770;2022-12-07T06:39:01;5.70;99.90
44900;DHT22;30628;51.188;6.770;2022-12-07T06:41:27;5.70;99.90
44900;DHT22;30628;51.188;6.770;2022-12-07T06:43:54;5.70;99.90
44900;DHT22;30628;51.188;6.770;2022-12-07T06:46:20;5.70;99.90
44900;DHT22;30628;51.188;6.770;2022-12-07T06:48:47;5.70;99.90
44900;DHT22;30628;51.188;6.770;2022-12-07T06:51:13;5.70;99.90
44900;DHT22;30628;51.188;6.770;2022-12-07T06:53:39;5.60;99.90
44900;DHT22;30628;51.188;6.770;2022-12-07T06:56:05;5.60;99.90
44900;DHT22;30628;51.188;6.770;2022-12-07T06:58:31;5.60;99.90
44900;DHT22;30628;51.188;6.770;2022-12-07T07:00:58;5.60;99.90
44900;DHT22;30628;51.188;6.770;2022-12-07T07:03:24;5.60;99.90
44900;DHT22;30628;51.188;6.770;2022-12-07T07:05:50;5.60;99.90
44900;DHT22;30628;51.188;6.770;2022-12-07T07:08:16;5.60;99.90
44900;DHT22;30628;51.188;6.770;2022-12-07T07:10:42;5.50;99.90
44900;DHT22;30628;51.188;6.770;2022-12-07T07:13:08;5.60;99.90
44900;DHT22;30628;51.188;6.770;2022-12-07T07:15:37;5.50;99.90
44900;DHT22;30628;51.188;6.770;2022-12-07T07:18:03;5.50;99.90
44900;DHT22;30628;51.188;6.770;2022-12-07T07:20:30;5.60;99.90
44900;DHT22;30628;51.188;6.770;2022-12-07T07:22:56;5.70;99.90
44900;DHT22;30628;51.188;6.770;2022-12-07T07:25:22;5.60;99.90
44900;DHT22;30628;51.188;6.770;2022-12-07T07:27:48;5.60;99.90
44900;DHT22;30628;51.188;6.770;2022-12-07T07:30:15;5.50;99.90
44900;DHT22;30628;51.188;6.770;2022-12-07T07:32:41;5.60;99.90
44900;DHT22;30628;51.188;6.770;2022-12-07T07:35:07;5.60;99.90
44900;DHT22;30628;51.188;6.770;2022-12-07T07:37:34;5.50;99.90
44900;DHT22;30628;51.188;6.770;2022-12-07T07:40:00;5.50;99.90
44900;DHT22;30628;51.188;6.770;2022-12-07T07:42:26;5.50;99.90
44900;DHT22;30628;51.188;6.770;2022-12-07T07:44:52;5.50;99.90
44900;DHT22;30628;51.188;6.770;2022-12-07T07:47:18;5.50;99.90
44900;DHT22;30628;51.188;6.770;2022-12-07T07:49:44;5.50;99.90
44900;DHT22;30628;51.188;6.770;2022-12-07T07:52:11;5.60;99.90
44900;DHT22;30628;51.188;6.770;2022-12-07T07:54:37;5.50;99.90
44900;DHT22;30628;51.188;6.770;2022-12-07T07:57:03;5.50;99.90
44900;DHT22;30628;51.188;6.770;2022-12-07T07:59:29;5.50;99.90
44900;DHT22;30628;51.188;6.770;2022-12-07T08:01:55;5.50;99.90
44900;DHT22;30628;51.188;6.770;2022-12-07T08:04:21;5.40;99.90
44900;DHT22;30628;51.188;6.770;2022-12-07T08:06:47;5.40;99.90
44900;DHT22;30628;51.188;6.770;2022-12-07T08:09:14;5.40;99.90
44900;DHT22;30628;51.188;6.770;2022-12-07T08:11:40;5.40;99.90
44900;DHT22;30628;51.188;6.770;2022-12-07T08:14:07;5.40;99.90
44900;DHT22;30628;51.188;6.770;2022-12-07T08:16:33;5.40;99.90
44900;DHT22;30628;51.188;6.770;2022-12-07T08:18:59;5.30;99.90
44900;DHT22;30628;51.188;6.770;2022-12-07T08:21:26;5.40;99.90
44900;DHT22;30628;51.188;6.770;2022-12-07T08:23:52;5.40;99.90
44900;DHT22;30628;51.188;6.770;2022-12-07T08:26:18;5.50;99.90
44900;DHT22;30628;51.188;6.770;2022-12-07T08:28:44;5.50;99.90
44900;DHT22;30628;51.188;6.770;2022-12-07T08:31:14;5.50;99.90
44900;DHT22;30628;51.188;6.770;2022-12-07T08:33:41;5.60;99.90
44900;DHT22;30628;51.188;6.770;2022-12-07T08:36:10;5.50;99.90
44900;DHT22;30628;51.188;6.770;2022-12-07T08:38:37;5.60;99.90
44900;DHT22;30628;51.188;6.770;2022-12-07T08:41:04;5.50;99.90
44900;DHT22;30628;51.188;6.770;2022-12-07T08:43:31;5.60;99.90
44900;DHT22;30628;51.188;6.770;2022-12-07T08:49:04;5.50;99.90
44900;DHT22;30628;51.188;6.770;2022-12-07T08:51:32;5.50;99.90
44900;DHT22;30628;51.188;6.770;2022-12-07T08:54:00;5.60;99.90
44900;DHT22;30628;51.188;6.770;2022-12-07T08:56:27;5.60;99.90
44900;DHT22;30628;51.188;6.770;2022-12-07T08:58:53;5.60;99.90
44900;DHT22;30628;51.188;6.770;2022-12-07T09:01:19;5.60;99.90
44900;DHT22;30628;51.188;6.770;2022-12-07T09:03:45;5.70;99.90
44900;DHT22;30628;51.188;6.770;2022-12-07T09:06:12;5.70;99.90
44900;DHT22;30628;51.188;6.770;2022-12-07T09:08:44;5.70;99.90
44900;DHT22;30628;51.188;6.770;2022-12-07T09:11:11;5.70;99.90
44900;DHT22;30628;51.188;6.770;2022-12-07T09:13:37;5.70;99.90
44900;DHT22;30628;51.188;6.770;2022-12-07T09:16:04;5.70;99.90
44900;DHT22;30628;51.188;6.770;2022-12-07T09:18:30;5.80;99.90
44900;DHT22;30628;51.188;6.770;2022-12-07T09:20:57;5.80;99.90
44900;DHT22;30628;51.188;6.770;2022-12-07T09:23:23;5.80;99.90
44900;DHT22;30628;51.188;6.770;2022-12-07T09:25:49;5.80;99.90
44900;DHT22;30628;51.188;6.770;2022-12-07T09:28:15;5.80;99.90
44900;DHT22;30628;51.188;6.770;2022-12-07T09:30:46;5.80;99.90
44900;DHT22;30628;51.188;6.770;2022-12-07T09:33:13;5.80;99.90
44900;DHT22;30628;51.188;6.770;2022-12-07T09:35:44;5.90;99.90
44900;DHT22;30628;51.188;6.770;2022-12-07T09:38:11;5.90;99.90
44900;DHT22;30628;51.188;6.770;2022-12-07T09:40:37;5.90;99.90
44900;DHT22;30628;51.188;6.770;2022-12-07T09:43:03;5.90;99.90
44900;DHT22;30628;51.188;6.770;2022-12-07T09:45:34;5.90;99.90
44900;DHT22;30628;51.188;6.770;2022-12-07T09:48:03;5.90;99.90
44900;DHT22;30628;51.188;6.770;2022-12-07T09:50:30;6.00;99.90
44900;DHT22;30628;51.188;6.770;2022-12-07T09:53:09;6.00;99.90
44900;DHT22;30628;51.188;6.770;2022-12-07T09:55:36;6.00;99.90
44900;DHT22;30628;51.188;6.770;2022-12-07T09:58:03;6.00;99.90
44900;DHT22;30628;51.188;6.770;2022-12-07T10:00:29;6.00;99.90
44900;DHT22;30628;51.188;6.770;2022-12-07T10:03:01;6.10;99.90
44900;DHT22;30628;51.188;6.770;2022-12-07T10:05:34;6.10;99.90
44900;DHT22;30628;51.188;6.770;2022-12-07T10:08:03;6.10;99.90
44900;DHT22;30628;51.188;6.770;2022-12-07T10:10:32;6.10;99.90
44900;DHT22;30628;51.188;6.770;2022-12-07T10:13:07;6.10;99.90
44900;DHT22;30628;51.188;6.770;2022-12-07T10:15:57;6.10;99.90
44900;DHT22;30628;51.188;6.770;2022-12-07T10:18:35;6.20;99.90
44900;DHT22;30628;51.188;6.770;2022-12-07T10:23:36;6.20;99.90
44900;DHT22;30628;51.188;6.770;2022-12-07T10:26:29;6.20;99.90
44900;DHT22;30628;51.188;6.770;2022-12-07T10:28:56;6.20;99.90
44900;DHT22;30628;51.188;6.770;2022-12-07T10:31:24;6.20;99.90
44900;DHT22;30628;51.188;6.770;2022-12-07T10:33:58;6.20;99.90
44900;DHT22;30628;51.188;6.770;2022-12-07T10:36:47;6.30;99.90
44900;DHT22;30628;51.188;6.770;2022-12-07T10:39:17;6.30;99.90
44900;DHT22;30628;51.188;6.770;2022-12-07T10:42:01;6.30;99.90
44900;DHT22;30628;51.188;6.770;2022-12-07T10:44:32;6.30;99.90
44900;DHT22;30628;51.188;6.770;2022-12-07T10:50:05;6.40;99.90
44900;DHT22;30628;51.188;6.770;2022-12-07T10:55:26;6.50;99.90
44900;DHT22;30628;51.188;6.770;2022-12-07T11:01:16;6.40;99.90
44900;DHT22;30628;51.188;6.770;2022-12-07T11:04:06;6.50;99.90
44900;DHT22;30628;51.188;6.770;2022-12-07T11:18:09;6.60;99.90
44900;DHT22;30628;51.188;6.770;2022-12-07T11:24:10;6.60;99.90
44900;DHT22;30628;51.188;6.770;2022-12-07T11:32:13;6.60;99.90
44900;DHT22;30628;51.188;6.770;2022-12-07T11:37:32;6.60;99.90
44900;DHT22;30628;51.188;6.770;2022-12-07T11:40:31;6.50;99.90
44900;DHT22;30628;51.188;6.770;2022-12-07T11:43:04;6.60;99.90
44900;DHT22;30628;51.188;6.770;2022-12-07T11:45:33;6.60;99.90
44900;DHT22;30628;51.188;6.770;2022-12-07T11:48:10;6.60;99.90
44900;DHT22;30628;51.188;6.770;2022-12-07T11:50:41;6.60;99.90
44900;DHT22;30628;51.188;6.770;2022-12-07T11:55:50;6.60;99.90
44900;DHT22;30628;51.188;6.770;2022-12-07T12:03:48;6.80;99.90
44900;DHT22;30628;51.188;6.770;2022-12-07T12:06:15;6.90;99.90
44900;DHT22;30628;51.188;6.770;2022-12-07T12:09:04;6.90;99.90
44900;DHT22;30628;51.188;6.770;2022-12-07T12:22:43;7.20;99.90
44900;DHT22;30628;51.188;6.770;2022-12-07T12:25:34;7.20;99.90
44900;DHT22;30628;51.188;6.770;2022-12-07T12:28:01;7.20;99.90
44900;DHT22;30628;51.188;6.770;2022-12-07T12:30:39;7.20;99.90
44900;DHT22;30628;51.188;6.770;2022-12-07T12:33:28;7.20;99.90
44900;DHT22;30628;51.188;6.770;2022-12-07T12:46:51;7.30;99.90
44900;DHT22;30628;51.188;6.770;2022-12-07T12:51:45;7.30;99.90
44900;DHT22;30628;51.188;6.770;2022-12-07T12:59:35;7.30;99.90
44900;DHT22;30628;51.188;6.770;2022-12-07T13:02:21;7.30;99.90
44900;DHT22;30628;51.188;6.770;2022-12-07T13:18:41;7.20;99.90
44900;DHT22;30628;51.188;6.770;2022-12-07T13:23:55;7.20;99.90
44900;DHT22;30628;51.188;6.770;2022-12-07T13:31:51;7.20;99.90
44900;DHT22;30628;51.188;6.770;2022-12-07T13:36:54;7.30;99.90
44900;DHT22;30628;51.188;6.770;2022-12-07T13:39:23;7.20;99.90
44900;DHT22;30628;51.188;6.770;2022-12-07T13:41:52;7.20;99.90
44900;DHT22;30628;51.188;6.770;2022-12-07T13:44:18;7.20;99.90
44900;DHT22;30628;51.188;6.770;2022-12-07T13:47:15;7.20;99.90
44900;DHT22;30628;51.188;6.770;2022-12-07T13:49:48;7.20;99.90
44900;DHT22;30628;51.188;6.770;2022-12-07T13:52:30;7.20;99.90
44900;DHT22;30628;51.188;6.770;2022-12-07T13:55:17;7.10;99.90
44900;DHT22;30628;51.188;6.770;2022-12-07T13:57:45;7.20;99.90
44900;DHT22;30628;51.188;6.770;2022-12-07T14:00:27;7.10;99.90
44900;DHT22;30628;51.188;6.770;2022-12-07T14:05:42;7.10;99.90
44900;DHT22;30628;51.188;6.770;2022-12-07T14:10:52;7.20;99.90
44900;DHT22;30628;51.188;6.770;2022-12-07T14:15:58;7.10;99.90
44900;DHT22;30628;51.188;6.770;2022-12-07T14:18:37;7.10;99.90
44900;DHT22;30628;51.188;6.770;2022-12-07T14:21:19;7.00;99.90
44900;DHT22;30628;51.188;6.770;2022-12-07T14:23:46;7.00;99.90
44900;DHT22;30628;51.188;6.770;2022-12-07T14:26:27;7.10;99.90
44900;DHT22;30628;51.188;6.770;2022-12-07T14:31:48;7.00;99.90
44900;DHT22;30628;51.188;6.770;2022-12-07T14:34:14;7.00;99.90
44900;DHT22;30628;51.188;6.770;2022-12-07T14:36:40;7.00;99.90
44900;DHT22;30628;51.188;6.770;2022-12-07T14:39:06;7.00;99.90
44900;DHT22;30628;51.188;6.770;2022-12-07T14:41:33;7.00;99.90
44900;DHT22;30628;51.188;6.770;2022-12-07T14:44:18;7.00;99.90
44900;DHT22;30628;51.188;6.770;2022-12-07T14:46:45;7.00;99.90
44900;DHT22;30628;51.188;6.770;2022-12-07T14:49:12;7.00;99.90
44900;DHT22;30628;51.188;6.770;2022-12-07T14:51:39;7.00;99.90
44900;DHT22;30628;51.188;6.770;2022-12-07T14:54:17;6.90;99.90
44900;DHT22;30628;51.188;6.770;2022-12-07T14:56:44;7.00;99.90
44900;DHT22;30628;51.188;6.770;2022-12-07T14:59:12;6.90;99.90
44900;DHT22;30628;51.188;6.770;2022-12-07T15:01:38;6.90;99.90
44900;DHT22;30628;51.188;6.770;2022-12-07T15:04:04;6.90;99.90
44900;DHT22;30628;51.188;6.770;2022-12-07T15:06:30;6.80;99.90
44900;DHT22;30628;51.188;6.770;2022-12-07T15:08:56;6.80;99.90
44900;DHT22;30628;51.188;6.770;2022-12-07T15:11:22;6.80;99.90
44900;DHT22;30628;51.188;6.770;2022-12-07T15:13:49;6.80;99.90
44900;DHT22;30628;51.188;6.770;2022-12-07T15:16:34;6.80;99.90
44900;DHT22;30628;51.188;6.770;2022-12-07T15:19:00;6.80;99.90
44900;DHT22;30628;51.188;6.770;2022-12-07T15:21:27;6.70;99.90
44900;DHT22;30628;51.188;6.770;2022-12-07T15:23:53;6.70;99.90
44900;DHT22;30628;51.188;6.770;2022-12-07T15:26:20;6.80;99.90
44900;DHT22;30628;51.188;6.770;2022-12-07T15:28:46;6.80;99.90
44900;DHT22;30628;51.188;6.770;2022-12-07T15:31:16;6.80;99.90
44900;DHT22;30628;51.188;6.770;2022-12-07T15:33:43;6.70;99.90
44900;DHT22;30628;51.188;6.770;2022-12-07T15:36:19;6.70;99.90
44900;DHT22;30628;51.188;6.770;2022-12-07T15:38:46;6.70;99.90
44900;DHT22;30628;51.188;6.770;2022-12-07T15:41:12;6.60;99.90
44900;DHT22;30628;51.188;6.770;2022-12-07T15:43:38;6.60;99.90
44900;DHT22;30628;51.188;6.770;2022-12-07T15:46:23;6.50;99.90
44900;DHT22;30628;51.188;6.770;2022-12-07T15:48:50;6.50;99.90
44900;DHT22;30628;51.188;6.770;2022-12-07T15:51:16;6.40;99.90
44900;DHT22;30628;51.188;6.770;2022-12-07T15:53:42;6.40;99.90
44900;DHT22;30628;51.188;6.770;2022-12-07T15:56:08;6.40;99.90
44900;DHT22;30628;51.188;6.770;2022-12-07T15:58:34;6.40;99.90
44900;DHT22;30628;51.188;6.770;2022-12-07T16:01:00;6.30;99.90
44900;DHT22;30628;51.188;6.770;2022-12-07T16:03:35;6.30;99.90
44900;DHT22;30628;51.188;6.770;2022-12-07T16:06:01;6.30;99.90
44900;DHT22;30628;51.188;6.770;2022-12-07T16:08:27;6.30;99.90
44900;DHT22;30628;51.188;6.770;2022-12-07T16:10:53;6.20;99.90
44900;DHT22;30628;51.188;6.770;2022-12-07T16:13:19;6.20;99.90
44900;DHT22;30628;51.188;6.770;2022-12-07T16:15:45;6.10;99.90
44900;DHT22;30628;51.188;6.770;2022-12-07T16:18:11;6.10;99.90
44900;DHT22;30628;51.188;6.770;2022-12-07T16:20:37;6.10;99.90
44900;DHT22;30628;51.188;6.770;2022-12-07T16:23:04;6.10;99.90
44900;DHT22;30628;51.188;6.770;2022-12-07T16:25:31;6.10;99.90
44900;DHT22;30628;51.188;6.770;2022-12-07T16:27:57;6.10;99.90
44900;DHT22;30628;51.188;6.770;2022-12-07T16:30:23;6.10;99.90
44900;DHT22;30628;51.188;6.770;2022-12-07T16:32:49;6.10;99.90
44900;DHT22;30628;51.188;6.770;2022-12-07T16:35:15;6.10;99.90
44900;DHT22;30628;51.188;6.770;2022-12-07T16:37:42;6.10;99.90
44900;DHT22;30628;51.188;6.770;2022-12-07T16:40:09;6.10;99.90
44900;DHT22;30628;51.188;6.770;2022-12-07T16:42:35;6.10;99.90
44900;DHT22;30628;51.188;6.770;2022-12-07T16:45:03;6.00;99.90
44900;DHT22;30628;51.188;6.770;2022-12-07T16:47:29;6.10;99.90
44900;DHT22;30628;51.188;6.770;2022-12-07T16:49:55;6.00;99.90
44900;DHT22;30628;51.188;6.770;2022-12-07T16:52:21;6.10;99.90
44900;DHT22;30628;51.188;6.770;2022-12-07T16:54:48;6.10;99.90
44900;DHT22;30628;51.188;6.770;2022-12-07T16:57:15;6.10;99.90
44900;DHT22;30628;51.188;6.770;2022-12-07T16:59:41;6.20;99.90
44900;DHT22;30628;51.188;6.770;2022-12-07T17:02:11;6.10;99.90
44900;DHT22;30628;51.188;6.770;2022-12-07T17:04:37;6.10;99.90
44900;DHT22;30628;51.188;6.770;2022-12-07T17:07:05;6.10;99.90
44900;DHT22;30628;51.188;6.770;2022-12-07T17:09:32;6.20;99.90
44900;DHT22;30628;51.188;6.770;2022-12-07T17:11:58;6.20;99.90
44900;DHT22;30628;51.188;6.770;2022-12-07T17:14:24;6.10;99.90
44900;DHT22;30628;51.188;6.770;2022-12-07T17:17:08;6.20;99.90
44900;DHT22;30628;51.188;6.770;2022-12-07T17:19:35;6.20;99.90
44900;DHT22;30628;51.188;6.770;2022-12-07T17:22:01;6.20;99.90
44900;DHT22;30628;51.188;6.770;2022-12-07T17:24:27;6.10;99.90
44900;DHT22;30628;51.188;6.770;2022-12-07T17:26:53;6.10;99.90
44900;DHT22;30628;51.188;6.770;2022-12-07T17:29:19;6.20;99.90
44900;DHT22;30628;51.188;6.770;2022-12-07T17:31:46;6.10;99.90
44900;DHT22;30628;51.188;6.770;2022-12-07T17:34:14;6.20;99.90
44900;DHT22;30628;51.188;6.770;2022-12-07T17:36:41;6.20;99.90
44900;DHT22;30628;51.188;6.770;2022-12-07T17:39:09;6.30;99.90
44900;DHT22;30628;51.188;6.770;2022-12-07T17:41:36;6.20;99.90
44900;DHT22;30628;51.188;6.770;2022-12-07T17:44:28;6.20;99.90
44900;DHT22;30628;51.188;6.770;2022-12-07T17:46:55;6.10;99.90
44900;DHT22;30628;51.188;6.770;2022-12-07T17:49:25;6.20;99.90
44900;DHT22;30628;51.188;6.770;2022-12-07T17:51:51;6.10;99.90
44900;DHT22;30628;51.188;6.770;2022-12-07T17:54:36;6.10;99.90
44900;DHT22;30628;51.188;6.770;2022-12-07T17:57:02;6.10;99.90
44900;DHT22;30628;51.188;6.770;2022-12-07T17:59:28;6.10;99.90
44900;DHT22;30628;51.188;6.770;2022-12-07T18:01:54;6.10;99.90
44900;DHT22;30628;51.188;6.770;2022-12-07T18:04:21;6.10;99.90
44900;DHT22;30628;51.188;6.770;2022-12-07T18:06:47;6.10;99.90
44900;DHT22;30628;51.188;6.770;2022-12-07T18:09:13;6.10;99.90
44900;DHT22;30628;51.188;6.770;2022-12-07T18:11:39;6.00;99.90
44900;DHT22;30628;51.188;6.770;2022-12-07T18:14:05;6.10;99.90
44900;DHT22;30628;51.188;6.770;2022-12-07T18:16:32;6.10;99.90
44900;DHT22;30628;51.188;6.770;2022-12-07T18:19:04;6.10;99.90
44900;DHT22;30628;51.188;6.770;2022-12-07T18:21:31;6.00;99.90
44900;DHT22;30628;51.188;6.770;2022-12-07T18:23:59;6.00;99.90